sensor_id;sensor_type;location;lat;lon;timestamp;pressure;altitude;pressure_sealevel;temperature;humidity
35307;BME280;21420;52.196;21.416;2023-01-08T00:01:13;100503.62;;;3.77;77.47
35307;BME280;21420;52.196;21.416;2023-01-08T00:03:40;100502.27;;;3.77;77.47
35307;BME280;21420;52.196;21.416;2023-01-08T00:06:12;100498.45;;;3.78;77.50
35307;BME280;21420;52.196;21.416;2023-01-08T00:08:40;100497.66;;;3.78;77.46
35307;BME280;21420;52.196;21.416;2023-01-08T00:11:07;100501.75;;;3.75;77.48
35307;BME280;21420;52.196;21.416;2023-01-08T00:13:34;100495.80;;;3.73;77.49
35307;BME280;21420;52.196;21.416;2023-01-08T00:16:11;100497.20;;;3.70;77.46
35307;BME280;21420;52.196;21.416;2023-01-08T00:18:40;100489.93;;;3.66;77.44
35307;BME280;21420;52.196;21.416;2023-01-08T00:21:06;100500.27;;;3.61;77.43
35307;BME280;21420;52.196;21.416;2023-01-08T00:23:32;100495.98;;;3.55;77.41
35307;BME280;21420;52.196;21.416;2023-01-08T00:26:00;100493.59;;;3.51;77.38
35307;BME280;21420;52.196;21.416;2023-01-08T00:28:28;100491.48;;;3.45;77.42
35307;BME280;21420;52.196;21.416;2023-01-08T00:30:54;100492.34;;;3.41;77.41
35307;BME280;21420;52.196;21.416;2023-01-08T00:33:21;100496.73;;;3.34;77.42
35307;BME280;21420;52.196;21.416;2023-01-08T00:35:47;100499.22;;;3.28;77.41
35307;BME280;21420;52.196;21.416;2023-01-08T00:38:13;100490.34;;;3.20;77.34
35307;BME280;21420;52.196;21.416;2023-01-08T00:40:39;100493.10;;;3.15;77.32
35307;BME280;21420;52.196;21.416;2023-01-08T00:43:06;100493.42;;;3.08;77.31
35307;BME280;21420;52.196;21.416;2023-01-08T00:45:33;100497.55;;;3.00;77.32
35307;BME280;21420;52.196;21.416;2023-01-08T00:47:59;100497.05;;;2.96;77.33
35307;BME280;21420;52.196;21.416;2023-01-08T00:50:26;100504.38;;;2.90;77.34
35307;BME280;21420;52.196;21.416;2023-01-08T00:52:52;100497.91;;;2.86;77.34
35307;BME280;21420;52.196;21.416;2023-01-08T00:55:18;100498.48;;;2.83;77.33
35307;BME280;21420;52.196;21.416;2023-01-08T00:57:45;100498.25;;;2.79;77.32
35307;BME280;21420;52.196;21.416;2023-01-08T01:00:13;100498.56;;;2.73;77.33
35307;BME280;21420;52.196;21.416;2023-01-08T01:02:41;100497.75;;;2.69;77.37
35307;BME280;21420;52.196;21.416;2023-01-08T01:05:09;100488.05;;;2.63;77.35
35307;BME280;21420;52.196;21.416;2023-01-08T01:07:37;100485.67;;;2.59;77.34
35307;BME280;21420;52.196;21.416;2023-01-08T01:10:04;100479.22;;;2.53;77.36
35307;BME280;21420;52.196;21.416;2023-01-08T01:12:31;100482.19;;;2.51;77.37
35307;BME280;21420;52.196;21.416;2023-01-08T01:14:57;100480.33;;;2.46;77.35
35307;BME280;21420;52.196;21.416;2023-01-08T01:17:23;100476.83;;;2.41;77.34
35307;BME280;21420;52.196;21.416;2023-01-08T01:19:49;100469.56;;;2.36;77.35
35307;BME280;21420;52.196;21.416;2023-01-08T01:22:15;100467.67;;;2.34;77.38
35307;BME280;21420;52.196;21.416;2023-01-08T01:24:41;100477.97;;;2.29;77.38
35307;BME280;21420;52.196;21.416;2023-01-08T01:27:08;100467.16;;;2.29;77.40
35307;BME280;21420;52.196;21.416;2023-01-08T01:29:34;100467.20;;;2.24;77.43
35307;BME280;21420;52.196;21.416;2023-01-08T01:32:00;100461.80;;;2.22;77.42
35307;BME280;21420;52.196;21.416;2023-01-08T01:34:26;100455.89;;;2.17;77.45
35307;BME280;21420;52.196;21.416;2023-01-08T01:36:52;100452.92;;;2.14;77.47
35307;BME280;21420;52.196;21.416;2023-01-08T01:39:18;100448.34;;;2.09;77.46
35307;BME280;21420;52.196;21.416;2023-01-08T01:41:46;100442.96;;;2.06;77.49
35307;BME280;21420;52.196;21.416;2023-01-08T01:44:41;100445.68;;;2.04;77.52
35307;BME280;21420;52.196;21.416;2023-01-08T01:47:15;100445.96;;;2.00;77.51
35307;BME280;21420;52.196;21.416;2023-01-08T01:50:06;100452.73;;;1.97;77.47
35307;BME280;21420;52.196;21.416;2023-01-08T01:52:37;100447.09;;;1.94;77.51
35307;BME280;21420;52.196;21.416;2023-01-08T01:55:22;100445.47;;;1.90;77.50
35307;BME280;21420;52.196;21.416;2023-01-08T01:58:05;100439.27;;;1.90;77.55
35307;BME280;21420;52.196;21.416;2023-01-08T02:00:20;100441.97;;;1.90;77.54
35307;BME280;21420;52.196;21.416;2023-01-08T02:02:48;100441.16;;;1.86;77.52
35307;BME280;21420;52.196;21.416;2023-01-08T02:05:15;100443.33;;;1.82;77.52
35307;BME280;21420;52.196;21.416;2023-01-08T02:07:57;100438.48;;;1.81;77.52
35307;BME280;21420;52.196;21.416;2023-01-08T02:10:47;100428.24;;;1.78;77.54
35307;BME280;21420;52.196;21.416;2023-01-08T02:13:22;100427.42;;;1.75;77.53
35307;BME280;21420;52.196;21.416;2023-01-08T02:18:52;100416.66;;;1.70;77.57
35307;BME280;21420;52.196;21.416;2023-01-08T02:21:32;100407.78;;;1.64;77.54
35307;BME280;21420;52.196;21.416;2023-01-08T02:24:28;100408.57;;;1.60;77.54
35307;BME280;21420;52.196;21.416;2023-01-08T02:26:52;100404.52;;;1.60;77.59
35307;BME280;21420;52.196;21.416;2023-01-08T02:29:22;100399.42;;;1.58;77.60
35307;BME280;21420;52.196;21.416;2023-01-08T02:31:50;100399.97;;;1.58;77.61
35307;BME280;21420;52.196;21.416;2023-01-08T02:34:16;100395.91;;;1.55;77.60
35307;BME280;21420;52.196;21.416;2023-01-08T02:36:50;100403.50;;;1.53;77.63
35307;BME280;21420;52.196;21.416;2023-01-08T02:48:18;100406.75;;;1.45;77.65
35307;BME280;21420;52.196;21.416;2023-01-08T02:50:50;100405.40;;;1.45;77.66
35307;BME280;21420;52.196;21.416;2023-01-08T02:53:24;100412.14;;;1.45;77.64
35307;BME280;21420;52.196;21.416;2023-01-08T02:55:55;100408.38;;;1.41;77.69
35307;BME280;21420;52.196;21.416;2023-01-08T02:58:25;100407.57;;;1.40;77.67
35307;BME280;21420;52.196;21.416;2023-01-08T03:00:55;100408.66;;;1.42;77.68
35307;BME280;21420;52.196;21.416;2023-01-08T03:03:24;100397.03;;;1.41;77.67
35307;BME280;21420;52.196;21.416;2023-01-08T03:06:03;100391.09;;;1.39;77.64
35307;BME280;21420;52.196;21.416;2023-01-08T03:08:33;100394.09;;;1.38;77.66
35307;BME280;21420;52.196;21.416;2023-01-08T03:11:09;100387.06;;;1.37;77.67
35307;BME280;21420;52.196;21.416;2023-01-08T03:22:11;100381.69;;;1.32;77.68
35307;BME280;21420;52.196;21.416;2023-01-08T03:24:40;100378.45;;;1.30;77.69
35307;BME280;21420;52.196;21.416;2023-01-08T03:27:09;100376.56;;;1.28;77.71
35307;BME280;21420;52.196;21.416;2023-01-08T03:29:39;100376.84;;;1.29;77.74
35307;BME280;21420;52.196;21.416;2023-01-08T03:32:08;100375.75;;;1.30;77.73
35307;BME280;21420;52.196;21.416;2023-01-08T03:34:38;100379.25;;;1.30;77.73
35307;BME280;21420;52.196;21.416;2023-01-08T03:37:07;100382.25;;;1.29;77.70
35307;BME280;21420;52.196;21.416;2023-01-08T03:39:40;100377.11;;;1.27;77.67
35307;BME280;21420;52.196;21.416;2023-01-08T03:42:13;100379.01;;;1.27;77.66
35307;BME280;21420;52.196;21.416;2023-01-08T03:44:40;100369.28;;;1.25;77.66
35307;BME280;21420;52.196;21.416;2023-01-08T03:47:07;100369.82;;;1.28;77.68
35307;BME280;21420;52.196;21.416;2023-01-08T03:49:35;100370.37;;;1.27;77.66
35307;BME280;21420;52.196;21.416;2023-01-08T03:52:03;100386.02;;;1.25;77.64
35307;BME280;21420;52.196;21.416;2023-01-08T03:54:31;100359.59;;;1.22;77.63
35307;BME280;21420;52.196;21.416;2023-01-08T03:56:59;100363.36;;;1.21;77.65
35307;BME280;21420;52.196;21.416;2023-01-08T03:59:25;100360.95;;;1.22;77.69
35307;BME280;21420;52.196;21.416;2023-01-08T04:01:51;100361.47;;;1.21;77.67
35307;BME280;21420;52.196;21.416;2023-01-08T04:04:17;100368.49;;;1.22;77.66
35307;BME280;21420;52.196;21.416;2023-01-08T04:06:43;100370.39;;;1.22;77.68
35307;BME280;21420;52.196;21.416;2023-01-08T04:09:10;100367.40;;;1.23;77.71
35307;BME280;21420;52.196;21.416;2023-01-08T04:11:36;100366.58;;;1.25;77.71
35307;BME280;21420;52.196;21.416;2023-01-08T04:14:02;100376.31;;;1.27;77.73
35307;BME280;21420;52.196;21.416;2023-01-08T04:16:28;100368.75;;;1.29;77.74
35307;BME280;21420;52.196;21.416;2023-01-08T04:18:54;100360.65;;;1.31;77.76
35307;BME280;21420;52.196;21.416;2023-01-08T04:21:20;100357.67;;;1.30;77.70
35307;BME280;21420;52.196;21.416;2023-01-08T04:23:46;100367.13;;;1.28;77.67
35307;BME280;21420;52.196;21.416;2023-01-08T04:26:13;100362.84;;;1.24;77.62
35307;BME280;21420;52.196;21.416;2023-01-08T04:28:40;100368.49;;;1.22;77.63
35307;BME280;21420;52.196;21.416;2023-01-08T04:31:07;100372.26;;;1.21;77.65
35307;BME280;21420;52.196;21.416;2023-01-08T04:33:34;100370.39;;;1.22;77.68
35307;BME280;21420;52.196;21.416;2023-01-08T04:36:01;100368.73;;;1.26;77.72
35307;BME280;21420;52.196;21.416;2023-01-08T04:38:28;100357.41;;;1.29;77.72
35307;BME280;21420;52.196;21.416;2023-01-08T04:40:59;100359.84;;;1.31;77.72
35307;BME280;21420;52.196;21.416;2023-01-08T04:43:26;100354.95;;;1.33;77.69
35307;BME280;21420;52.196;21.416;2023-01-08T04:45:57;100353.08;;;1.36;77.74
35307;BME280;21420;52.196;21.416;2023-01-08T04:48:27;100353.32;;;1.39;77.74
35307;BME280;21420;52.196;21.416;2023-01-08T04:50:57;100351.44;;;1.42;77.72
35307;BME280;21420;52.196;21.416;2023-01-08T04:53:23;100354.12;;;1.45;77.73
35307;BME280;21420;52.196;21.416;2023-01-08T04:55:49;100344.68;;;1.45;77.72
35307;BME280;21420;52.196;21.416;2023-01-08T04:58:15;100346.81;;;1.48;77.69
35307;BME280;21420;52.196;21.416;2023-01-08T05:00:42;100347.90;;;1.50;77.67
35307;BME280;21420;52.196;21.416;2023-01-08T05:03:08;100350.33;;;1.51;77.66
35307;BME280;21420;52.196;21.416;2023-01-08T05:05:36;100344.94;;;1.51;77.67
35307;BME280;21420;52.196;21.416;2023-01-08T05:08:03;100348.44;;;1.52;77.62
35307;BME280;21420;52.196;21.416;2023-01-08T05:10:30;100352.48;;;1.52;77.63
35307;BME280;21420;52.196;21.416;2023-01-08T05:12:59;100349.50;;;1.51;77.56
35307;BME280;21420;52.196;21.416;2023-01-08T05:15:26;100347.36;;;1.48;77.53
35307;BME280;21420;52.196;21.416;2023-01-08T05:18:00;100354.92;;;1.45;77.51
35307;BME280;21420;52.196;21.416;2023-01-08T05:20:27;100349.28;;;1.44;77.49
35307;BME280;21420;52.196;21.416;2023-01-08T05:22:53;100343.34;;;1.42;77.54
35307;BME280;21420;52.196;21.416;2023-01-08T05:25:19;100352.79;;;1.42;77.55
35307;BME280;21420;52.196;21.416;2023-01-08T05:27:46;100361.14;;;1.43;77.55
35307;BME280;21420;52.196;21.416;2023-01-08T05:30:13;100354.67;;;1.44;77.53
35307;BME280;21420;52.196;21.416;2023-01-08T05:32:39;100356.29;;;1.43;77.55
35307;BME280;21420;52.196;21.416;2023-01-08T05:35:06;100357.09;;;1.43;77.57
35307;BME280;21420;52.196;21.416;2023-01-08T05:37:34;100357.08;;;1.46;77.58
35307;BME280;21420;52.196;21.416;2023-01-08T05:40:00;100353.86;;;1.47;77.53
35307;BME280;21420;52.196;21.416;2023-01-08T05:42:26;100348.71;;;1.48;77.55
35307;BME280;21420;52.196;21.416;2023-01-08T05:44:52;100338.47;;;1.47;77.52
35307;BME280;21420;52.196;21.416;2023-01-08T05:47:18;100346.56;;;1.47;77.52
35307;BME280;21420;52.196;21.416;2023-01-08T05:49:44;100342.00;;;1.42;77.48
35307;BME280;21420;52.196;21.416;2023-01-08T05:52:11;100342.55;;;1.42;77.49
35307;BME280;21420;52.196;21.416;2023-01-08T05:54:37;100345.24;;;1.42;77.46
35307;BME280;21420;52.196;21.416;2023-01-08T05:57:03;100341.46;;;1.40;77.41
35307;BME280;21420;52.196;21.416;2023-01-08T05:59:29;100342.83;;;1.35;77.37
35307;BME280;21420;52.196;21.416;2023-01-08T06:01:55;100335.03;;;1.29;77.31
35307;BME280;21420;52.196;21.416;2023-01-08T06:04:23;100336.94;;;1.20;77.28
35307;BME280;21420;52.196;21.416;2023-01-08T06:06:50;100336.67;;;1.14;77.25
35307;BME280;21420;52.196;21.416;2023-01-08T06:09:16;100332.13;;;1.04;77.23
35307;BME280;21420;52.196;21.416;2023-01-08T06:11:42;100341.83;;;1.00;77.24
35307;BME280;21420;52.196;21.416;2023-01-08T06:14:08;100340.52;;;0.93;77.23
35307;BME280;21420;52.196;21.416;2023-01-08T06:16:34;100346.43;;;0.90;77.24
35307;BME280;21420;52.196;21.416;2023-01-08T06:19:01;100346.99;;;0.84;77.24
35307;BME280;21420;52.196;21.416;2023-01-08T06:21:28;100344.55;;;0.82;77.23
35307;BME280;21420;52.196;21.416;2023-01-08T06:23:54;100340.27;;;0.79;77.25
35307;BME280;21420;52.196;21.416;2023-01-08T06:26:20;100338.09;;;0.76;77.28
35307;BME280;21420;52.196;21.416;2023-01-08T06:28:46;100341.34;;;0.75;77.30
35307;BME280;21420;52.196;21.416;2023-01-08T06:31:12;100331.36;;;0.73;77.32
35307;BME280;21420;52.196;21.416;2023-01-08T06:33:38;100323.27;;;0.73;77.34
35307;BME280;21420;52.196;21.416;2023-01-08T06:36:05;100325.72;;;0.72;77.32
35307;BME280;21420;52.196;21.416;2023-01-08T06:38:33;100325.17;;;0.70;77.36
35307;BME280;21420;52.196;21.416;2023-01-08T06:41:03;100331.37;;;0.71;77.37
35307;BME280;21420;52.196;21.416;2023-01-08T06:43:32;100327.06;;;0.72;77.41
35307;BME280;21420;52.196;21.416;2023-01-08T06:45:59;100332.97;;;0.74;77.45
35307;BME280;21420;52.196;21.416;2023-01-08T06:48:25;100330.30;;;0.77;77.46
35307;BME280;21420;52.196;21.416;2023-01-08T06:50:52;100329.47;;;0.84;77.52
35307;BME280;21420;52.196;21.416;2023-01-08T06:53:19;100331.06;;;0.88;77.54
35307;BME280;21420;52.196;21.416;2023-01-08T06:55:45;100332.67;;;0.94;77.54
35307;BME280;21420;52.196;21.416;2023-01-08T06:58:11;100329.16;;;0.98;77.56
35307;BME280;21420;52.196;21.416;2023-01-08T07:00:38;100327.54;;;1.02;77.52
35307;BME280;21420;52.196;21.416;2023-01-08T07:03:04;100321.33;;;1.04;77.50
35307;BME280;21420;52.196;21.416;2023-01-08T07:05:31;100311.87;;;1.10;77.49
35307;BME280;21420;52.196;21.416;2023-01-08T07:07:57;100312.14;;;1.13;77.47
35307;BME280;21420;52.196;21.416;2023-01-08T07:10:23;100315.62;;;1.19;77.48
35307;BME280;21420;52.196;21.416;2023-01-08T07:12:51;100301.85;;;1.23;77.49
35307;BME280;21420;52.196;21.416;2023-01-08T07:15:17;100296.73;;;1.24;77.48
35307;BME280;21420;52.196;21.416;2023-01-08T07:17:43;100294.27;;;1.30;77.46
35307;BME280;21420;52.196;21.416;2023-01-08T07:20:09;100290.48;;;1.34;77.47
35307;BME280;21420;52.196;21.416;2023-01-08T07:22:36;100283.17;;;1.37;77.46
35307;BME280;21420;52.196;21.416;2023-01-08T07:25:02;100286.14;;;1.40;77.47
35307;BME280;21420;52.196;21.416;2023-01-08T07:27:29;100280.99;;;1.47;77.47
35307;BME280;21420;52.196;21.416;2023-01-08T07:29:57;100279.34;;;1.48;77.46
35307;BME280;21420;52.196;21.416;2023-01-08T07:32:24;100287.96;;;1.53;77.42
35307;BME280;21420;52.196;21.416;2023-01-08T07:34:50;100291.99;;;1.55;77.42
35307;BME280;21420;52.196;21.416;2023-01-08T07:37:18;100285.76;;;1.60;77.45
35307;BME280;21420;52.196;21.416;2023-01-08T07:39:45;100279.27;;;1.63;77.45
35307;BME280;21420;52.196;21.416;2023-01-08T07:42:11;100293.55;;;1.66;77.41
35307;BME280;21420;52.196;21.416;2023-01-08T07:44:37;100281.92;;;1.71;77.38
35307;BME280;21420;52.196;21.416;2023-01-08T07:47:03;100287.58;;;1.75;77.35
35307;BME280;21420;52.196;21.416;2023-01-08T07:49:29;100285.41;;;1.77;77.35
35307;BME280;21420;52.196;21.416;2023-01-08T07:51:56;100279.98;;;1.79;77.40
35307;BME280;21420;52.196;21.416;2023-01-08T07:54:22;100281.07;;;1.81;77.30
35307;BME280;21420;52.196;21.416;2023-01-08T07:56:48;100287.27;;;1.81;77.28
35307;BME280;21420;52.196;21.416;2023-01-08T07:59:14;100290.50;;;1.83;77.31
35307;BME280;21420;52.196;21.416;2023-01-08T08:01:40;100285.08;;;1.86;77.28
35307;BME280;21420;52.196;21.416;2023-01-08T08:04:07;100285.36;;;1.87;77.26
35307;BME280;21420;52.196;21.416;2023-01-08T08:06:33;100280.76;;;1.87;77.29
35307;BME280;21420;52.196;21.416;2023-01-08T08:08:59;100282.89;;;1.91;77.25
35307;BME280;21420;52.196;21.416;2023-01-08T08:11:25;100275.06;;;1.92;77.22
35307;BME280;21420;52.196;21.416;2023-01-08T08:13:52;100263.71;;;1.92;77.14
35307;BME280;21420;52.196;21.416;2023-01-08T08:16:18;100260.19;;;1.94;77.23
35307;BME280;21420;52.196;21.416;2023-01-08T08:18:44;100254.79;;;1.94;77.19
35307;BME280;21420;52.196;21.416;2023-01-08T08:21:10;100247.48;;;1.95;77.16
35307;BME280;21420;52.196;21.416;2023-01-08T08:23:37;100246.38;;;1.96;77.18
35307;BME280;21420;52.196;21.416;2023-01-08T08:26:03;100248.56;;;1.96;77.16
35307;BME280;21420;52.196;21.416;2023-01-08T08:28:30;100246.64;;;1.99;77.20
35307;BME280;21420;52.196;21.416;2023-01-08T08:30:56;100247.97;;;2.02;77.22
35307;BME280;21420;52.196;21.416;2023-01-08T08:33:22;100259.30;;;2.04;77.17
35307;BME280;21420;52.196;21.416;2023-01-08T08:35:49;100244.72;;;2.05;77.14
35307;BME280;21420;52.196;21.416;2023-01-08T08:38:16;100234.41;;;2.07;77.22
35307;BME280;21420;52.196;21.416;2023-01-08T08:40:42;100242.75;;;2.13;77.16
35307;BME280;21420;52.196;21.416;2023-01-08T08:43:08;100245.98;;;2.15;77.19
35307;BME280;21420;52.196;21.416;2023-01-08T08:45:35;100251.36;;;2.18;77.09
35307;BME280;21420;52.196;21.416;2023-01-08T08:48:04;100247.05;;;2.17;77.08
35307;BME280;21420;52.196;21.416;2023-01-08T08:50:31;100229.49;;;2.17;77.12
35307;BME280;21420;52.196;21.416;2023-01-08T08:52:59;100236.77;;;2.19;77.03
35307;BME280;21420;52.196;21.416;2023-01-08T08:55:26;100230.27;;;2.20;77.06
35307;BME280;21420;52.196;21.416;2023-01-08T08:57:53;100226.98;;;2.23;76.98
35307;BME280;21420;52.196;21.416;2023-01-08T09:00:19;100230.52;;;2.23;76.97
35307;BME280;21420;52.196;21.416;2023-01-08T09:02:48;100238.05;;;2.26;77.11
35307;BME280;21420;52.196;21.416;2023-01-08T09:05:15;100225.83;;;2.32;77.04
35307;BME280;21420;52.196;21.416;2023-01-08T09:07:41;100227.16;;;2.34;77.13
35307;BME280;21420;52.196;21.416;2023-01-08T09:10:08;100222.80;;;2.38;77.13
35307;BME280;21420;52.196;21.416;2023-01-08T09:12:34;100218.72;;;2.41;77.12
35307;BME280;21420;52.196;21.416;2023-01-08T09:15:00;100215.46;;;2.44;77.04
35307;BME280;21420;52.196;21.416;2023-01-08T09:17:26;100208.95;;;2.45;77.00
35307;BME280;21420;52.196;21.416;2023-01-08T09:19:52;100201.92;;;2.46;76.97
35307;BME280;21420;52.196;21.416;2023-01-08T09:22:19;100194.06;;;2.47;76.97
35307;BME280;21420;52.196;21.416;2023-01-08T09:24:45;100194.33;;;2.48;76.96
35307;BME280;21420;52.196;21.416;2023-01-08T09:27:12;100184.29;;;2.52;76.96
35307;BME280;21420;52.196;21.416;2023-01-08T09:29:39;100188.83;;;2.56;77.01
35307;BME280;21420;52.196;21.416;2023-01-08T09:32:06;100181.77;;;2.60;77.02
35307;BME280;21420;52.196;21.416;2023-01-08T09:34:33;100177.40;;;2.64;77.01
35307;BME280;21420;52.196;21.416;2023-01-08T09:37:01;100184.09;;;2.69;76.97
35307;BME280;21420;52.196;21.416;2023-01-08T09:39:27;100183.44;;;2.80;77.09
35307;BME280;21420;52.196;21.416;2023-01-08T09:41:54;100186.83;;;2.91;77.17
35307;BME280;21420;52.196;21.416;2023-01-08T09:44:25;100194.32;;;2.97;77.07
35307;BME280;21420;52.196;21.416;2023-01-08T09:46:53;100195.64;;;2.99;77.01
35307;BME280;21420;52.196;21.416;2023-01-08T09:49:31;100198.06;;;3.01;77.01
35307;BME280;21420;52.196;21.416;2023-01-08T09:51:55;100197.34;;;2.95;76.83
35307;BME280;21420;52.196;21.416;2023-01-08T09:54:23;100192.80;;;2.88;76.78
35307;BME280;21420;52.196;21.416;2023-01-08T09:56:51;100189.09;;;2.81;76.65
35307;BME280;21420;52.196;21.416;2023-01-08T09:59:18;100188.91;;;2.75;76.64
35307;BME280;21420;52.196;21.416;2023-01-08T10:01:45;100174.91;;;2.70;76.59
35307;BME280;21420;52.196;21.416;2023-01-08T10:04:18;100183.88;;;2.66;76.62
35307;BME280;21420;52.196;21.416;2023-01-08T10:07:01;100175.08;;;2.77;76.87
35307;BME280;21420;52.196;21.416;2023-01-08T10:09:30;100177.92;;;2.88;77.06
35307;BME280;21420;52.196;21.416;2023-01-08T10:12:00;100175.84;;;2.82;76.86
35307;BME280;21420;52.196;21.416;2023-01-08T10:14:33;100171.30;;;2.78;76.73
35307;BME280;21420;52.196;21.416;2023-01-08T10:17:06;100166.23;;;2.71;76.65
35307;BME280;21420;52.196;21.416;2023-01-08T10:19:34;100159.73;;;2.72;76.78
35307;BME280;21420;52.196;21.416;2023-01-08T10:22:00;100159.52;;;2.68;76.69
35307;BME280;21420;52.196;21.416;2023-01-08T10:24:34;100150.33;;;2.67;76.70
35307;BME280;21420;52.196;21.416;2023-01-08T10:27:06;100145.83;;;2.60;76.54
35307;BME280;21420;52.196;21.416;2023-01-08T10:29:41;100153.34;;;2.63;76.60
35307;BME280;21420;52.196;21.416;2023-01-08T10:32:23;100151.75;;;2.62;76.68
35307;BME280;21420;52.196;21.416;2023-01-08T10:35:03;100136.91;;;2.59;76.61
35307;BME280;21420;52.196;21.416;2023-01-08T10:37:37;100139.13;;;2.55;76.49
35307;BME280;21420;52.196;21.416;2023-01-08T10:43:04;100137.47;;;2.56;76.55
35307;BME280;21420;52.196;21.416;2023-01-08T10:45:34;100129.67;;;2.52;76.42
35307;BME280;21420;52.196;21.416;2023-01-08T10:48:03;100128.36;;;2.49;76.48
35307;BME280;21420;52.196;21.416;2023-01-08T10:50:33;100129.19;;;2.50;76.45
35307;BME280;21420;52.196;21.416;2023-01-08T10:53:03;100128.63;;;2.50;76.46
35307;BME280;21420;52.196;21.416;2023-01-08T10:55:34;100127.25;;;2.53;76.53
35307;BME280;21420;52.196;21.416;2023-01-08T11:00:39;100124.16;;;2.62;76.58
35307;BME280;21420;52.196;21.416;2023-01-08T11:03:14;100119.55;;;2.63;76.54
35307;BME280;21420;52.196;21.416;2023-01-08T11:05:38;100110.36;;;2.64;76.51
35307;BME280;21420;52.196;21.416;2023-01-08T11:08:11;100116.84;;;2.63;76.51
35307;BME280;21420;52.196;21.416;2023-01-08T11:10:39;100113.11;;;2.59;76.46
35307;BME280;21420;52.196;21.416;2023-01-08T11:13:06;100095.53;;;2.59;76.39
35307;BME280;21420;52.196;21.416;2023-01-08T11:15:40;100089.13;;;2.55;76.41
35307;BME280;21420;52.196;21.416;2023-01-08T11:18:14;100085.38;;;2.50;76.37
35307;BME280;21420;52.196;21.416;2023-01-08T11:20:48;100089.44;;;2.50;76.45
35307;BME280;21420;52.196;21.416;2023-01-08T11:25:58;100085.45;;;2.43;76.39
35307;BME280;21420;52.196;21.416;2023-01-08T11:28:29;100073.05;;;2.42;76.31
35307;BME280;21420;52.196;21.416;2023-01-08T11:31:09;100083.34;;;2.40;76.34
35307;BME280;21420;52.196;21.416;2023-01-08T11:33:41;100077.17;;;2.37;76.29
35307;BME280;21420;52.196;21.416;2023-01-08T11:36:14;100082.86;;;2.35;76.30
35307;BME280;21420;52.196;21.416;2023-01-08T11:38:45;100083.66;;;2.36;76.32
35307;BME280;21420;52.196;21.416;2023-01-08T11:44:30;100069.86;;;2.37;76.38
35307;BME280;21420;52.196;21.416;2023-01-08T11:47:00;100064.42;;;2.40;76.34
35307;BME280;21420;52.196;21.416;2023-01-08T11:52:18;100062.83;;;2.39;76.30
35307;BME280;21420;52.196;21.416;2023-01-08T11:54:54;100055.21;;;2.41;76.42
35307;BME280;21420;52.196;21.416;2023-01-08T12:00:35;100041.45;;;2.40;76.28
35307;BME280;21420;52.196;21.416;2023-01-08T12:09:11;100027.34;;;2.43;76.39
35307;BME280;21420;52.196;21.416;2023-01-08T12:12:18;100025.16;;;2.45;76.38
35307;BME280;21420;52.196;21.416;2023-01-08T12:15:12;100037.05;;;2.46;76.37
35307;BME280;21420;52.196;21.416;2023-01-08T12:20:53;100040.34;;;2.43;76.24
35307;BME280;21420;52.196;21.416;2023-01-08T12:23:47;100047.45;;;2.37;76.13
35307;BME280;21420;52.196;21.416;2023-01-08T12:26:37;100048.31;;;2.32;76.14
35307;BME280;21420;52.196;21.416;2023-01-08T12:29:24;100037.82;;;2.28;76.10
35307;BME280;21420;52.196;21.416;2023-01-08T12:40:12;100039.45;;;2.26;76.31
35307;BME280;21420;52.196;21.416;2023-01-08T12:42:43;100030.52;;;2.28;76.39
35307;BME280;21420;52.196;21.416;2023-01-08T12:45:28;100032.38;;;2.31;76.39
35307;BME280;21420;52.196;21.416;2023-01-08T12:48:03;100027.02;;;2.28;76.32
35307;BME280;21420;52.196;21.416;2023-01-08T12:50:43;100028.64;;;2.26;76.23
35307;BME280;21420;52.196;21.416;2023-01-08T13:01:33;100019.22;;;2.24;76.25
35307;BME280;21420;52.196;21.416;2023-01-08T13:04:10;100011.91;;;2.24;76.35
35307;BME280;21420;52.196;21.416;2023-01-08T13:06:36;100015.41;;;2.27;76.38
35307;BME280;21420;52.196;21.416;2023-01-08T13:09:03;100021.09;;;2.26;76.34
35307;BME280;21420;52.196;21.416;2023-01-08T13:11:35;100027.57;;;2.25;76.27
35307;BME280;21420;52.196;21.416;2023-01-08T13:14:10;100025.45;;;2.22;76.20
35307;BME280;21420;52.196;21.416;2023-01-08T13:16:40;100024.42;;;2.18;76.21
35307;BME280;21420;52.196;21.416;2023-01-08T13:19:51;100036.06;;;2.16;76.22
35307;BME280;21420;52.196;21.416;2023-01-08T13:21:56;100031.48;;;2.16;76.27
35307;BME280;21420;52.196;21.416;2023-01-08T13:24:32;100033.32;;;2.18;76.32
35307;BME280;21420;52.196;21.416;2023-01-08T13:27:24;100032.80;;;2.19;76.40
35307;BME280;21420;52.196;21.416;2023-01-08T13:29:50;100030.86;;;2.22;76.38
35307;BME280;21420;52.196;21.416;2023-01-08T13:38:04;100024.69;;;2.19;76.28
35307;BME280;21420;52.196;21.416;2023-01-08T13:43:33;100020.95;;;2.15;76.29
35307;BME280;21420;52.196;21.416;2023-01-08T13:47:45;100013.94;;;2.18;76.35
35307;BME280;21420;52.196;21.416;2023-01-08T13:50:17;100017.77;;;2.19;76.40
35307;BME280;21420;52.196;21.416;2023-01-08T13:53:04;100013.84;;;2.18;76.36
35307;BME280;21420;52.196;21.416;2023-01-08T13:55:36;100008.94;;;2.16;76.30
35307;BME280;21420;52.196;21.416;2023-01-08T13:58:15;100003.61;;;2.13;76.30
35307;BME280;21420;52.196;21.416;2023-01-08T14:00:46;100007.10;;;2.08;76.22
35307;BME280;21420;52.196;21.416;2023-01-08T14:03:25;100008.38;;;2.04;76.29
35307;BME280;21420;52.196;21.416;2023-01-08T14:06:15;100009.54;;;2.01;76.34
35307;BME280;21420;52.196;21.416;2023-01-08T14:08:53;100002.83;;;1.98;76.45
35307;BME280;21420;52.196;21.416;2023-01-08T14:11:27;100000.71;;;1.94;76.42
35307;BME280;21420;52.196;21.416;2023-01-08T14:13:56;99998.69;;;1.91;76.40
35307;BME280;21420;52.196;21.416;2023-01-08T14:16:23;99994.55;;;1.89;76.43